sensor_id;sensor_type;location;lat;lon;timestamp;P1;durP1;ratioP1;P2;durP2;ratioP2
45863;SDS011;31579;52.354;16.974;2023-02-27T00:00:05;8.00;;;2.90;;
45863;SDS011;31579;52.354;16.974;2023-02-27T00:05:01;8.80;;;2.80;;
45863;SDS011;31579;52.354;16.974;2023-02-27T00:10:01;8.00;;;2.70;;
45863;SDS011;31579;52.354;16.974;2023-02-27T00:15:01;8.00;;;2.70;;
45863;SDS011;31579;52.354;16.974;2023-02-27T00:20:02;9.10;;;3.20;;
45863;SDS011;31579;52.354;16.974;2023-02-27T00:25:01;9.10;;;3.20;;
45863;SDS011;31579;52.354;16.974;2023-02-27T00:30:02;8.10;;;2.80;;
45863;SDS011;31579;52.354;16.974;2023-02-27T00:35:03;8.10;;;2.80;;
45863;SDS011;31579;52.354;16.974;2023-02-27T00:40:01;7.80;;;2.40;;
45863;SDS011;31579;52.354;16.974;2023-02-27T00:45:01;7.80;;;2.40;;
45863;SDS011;31579;52.354;16.974;2023-02-27T00:50:01;7.40;;;2.80;;
45863;SDS011;31579;52.354;16.974;2023-02-27T00:55:01;7.40;;;2.80;;
45863;SDS011;31579;52.354;16.974;2023-02-27T01:00:01;14.40;;;2.80;;
45863;SDS011;31579;52.354;16.974;2023-02-27T01:05:01;14.40;;;2.80;;
45863;SDS011;31579;52.354;16.974;2023-02-27T01:10:01;10.10;;;2.90;;
45863;SDS011;31579;52.354;16.974;2023-02-27T01:15:02;10.10;;;2.90;;
45863;SDS011;31579;52.354;16.974;2023-02-27T01:20:01;7.30;;;2.60;;
45863;SDS011;31579;52.354;16.974;2023-02-27T01:25:01;7.30;;;2.60;;
45863;SDS011;31579;52.354;16.974;2023-02-27T01:30:01;11.20;;;3.20;;
45863;SDS011;31579;52.354;16.974;2023-02-27T01:35:01;11.20;;;3.20;;
45863;SDS011;31579;52.354;16.974;2023-02-27T01:40:04;8.30;;;2.80;;
45863;SDS011;31579;52.354;16.974;2023-02-27T01:50:01;8.30;;;2.80;;
45863;SDS011;31579;52.354;16.974;2023-02-27T01:55:02;8.80;;;3.10;;
45863;SDS011;31579;52.354;16.974;2023-02-27T02:00:03;6.70;;;2.70;;
45863;SDS011;31579;52.354;16.974;2023-02-27T02:05:01;6.70;;;2.70;;
45863;SDS011;31579;52.354;16.974;2023-02-27T02:10:01;8.30;;;3.00;;
45863;SDS011;31579;52.354;16.974;2023-02-27T02:15:02;8.30;;;3.00;;
45863;SDS011;31579;52.354;16.974;2023-02-27T03:20:02;8.90;;;3.20;;
45863;SDS011;31579;52.354;16.974;2023-02-27T03:25:01;8.90;;;3.20;;
45863;SDS011;31579;52.354;16.974;2023-02-27T03:35:01;9.80;;;3.30;;
45863;SDS011;31579;52.354;16.974;2023-02-27T03:50:01;9.10;;;3.60;;
45863;SDS011;31579;52.354;16.974;2023-02-27T03:55:12;9.10;;;3.60;;
45863;SDS011;31579;52.354;16.974;2023-02-27T04:00:02;8.70;;;2.80;;
45863;SDS011;31579;52.354;16.974;2023-02-27T04:05:06;8.70;;;2.80;;
45863;SDS011;31579;52.354;16.974;2023-02-27T04:40:19;12.10;;;3.50;;
45863;SDS011;31579;52.354;16.974;2023-02-27T04:45:17;12.10;;;3.50;;
45863;SDS011;31579;52.354;16.974;2023-02-27T04:50:20;12.50;;;3.90;;
45863;SDS011;31579;52.354;16.974;2023-02-27T04:55:19;12.50;;;3.90;;
45863;SDS011;31579;52.354;16.974;2023-02-27T05:00:17;10.90;;;4.20;;
45863;SDS011;31579;52.354;16.974;2023-02-27T05:05:18;10.90;;;4.20;;
45863;SDS011;31579;52.354;16.974;2023-02-27T05:10:22;11.40;;;4.00;;
45863;SDS011;31579;52.354;16.974;2023-02-27T05:16:05;11.40;;;4.00;;
45863;SDS011;31579;52.354;16.974;2023-02-27T05:20:17;9.60;;;3.70;;
45863;SDS011;31579;52.354;16.974;2023-02-27T05:25:22;9.60;;;3.70;;
45863;SDS011;31579;52.354;16.974;2023-02-27T05:30:24;9.50;;;3.30;;
45863;SDS011;31579;52.354;16.974;2023-02-27T05:40:18;8.80;;;3.60;;
45863;SDS011;31579;52.354;16.974;2023-02-27T05:45:21;8.80;;;3.60;;
45863;SDS011;31579;52.354;16.974;2023-02-27T05:50:22;10.50;;;3.70;;
45863;SDS011;31579;52.354;16.974;2023-02-27T05:55:23;10.50;;;3.70;;
45863;SDS011;31579;52.354;16.974;2023-02-27T06:00:21;9.40;;;3.80;;
45863;SDS011;31579;52.354;16.974;2023-02-27T06:05:17;9.40;;;3.80;;
45863;SDS011;31579;52.354;16.974;2023-02-27T06:10:17;9.70;;;3.70;;
45863;SDS011;31579;52.354;16.974;2023-02-27T06:15:17;9.70;;;3.70;;
45863;SDS011;31579;52.354;16.974;2023-02-27T06:20:17;10.60;;;4.30;;
45863;SDS011;31579;52.354;16.974;2023-02-27T06:30:26;11.00;;;4.70;;
45863;SDS011;31579;52.354;16.974;2023-02-27T06:35:27;11.00;;;4.70;;
45863;SDS011;31579;52.354;16.974;2023-02-27T06:40:26;12.20;;;4.80;;
45863;SDS011;31579;52.354;16.974;2023-02-27T06:45:26;12.20;;;4.80;;
45863;SDS011;31579;52.354;16.974;2023-02-27T06:50:26;14.30;;;6.40;;
45863;SDS011;31579;52.354;16.974;2023-02-27T06:55:26;14.30;;;6.40;;
45863;SDS011;31579;52.354;16.974;2023-02-27T07:00:26;28.80;;;16.60;;
45863;SDS011;31579;52.354;16.974;2023-02-27T07:05:26;28.80;;;16.60;;
45863;SDS011;31579;52.354;16.974;2023-02-27T07:10:26;10.40;;;5.00;;
45863;SDS011;31579;52.354;16.974;2023-02-27T07:15:26;10.40;;;5.00;;
45863;SDS011;31579;52.354;16.974;2023-02-27T07:21:06;10.90;;;5.10;;
45863;SDS011;31579;52.354;16.974;2023-02-27T07:26:06;10.90;;;5.10;;
45863;SDS011;31579;52.354;16.974;2023-02-27T07:31:06;12.70;;;4.90;;
45863;SDS011;31579;52.354;16.974;2023-02-27T07:36:06;12.70;;;4.90;;
45863;SDS011;31579;52.354;16.974;2023-02-27T07:41:06;14.50;;;5.90;;
45863;SDS011;31579;52.354;16.974;2023-02-27T07:46:06;14.50;;;5.90;;
45863;SDS011;31579;52.354;16.974;2023-02-27T07:51:06;15.40;;;5.50;;
45863;SDS011;31579;52.354;16.974;2023-02-27T07:56:06;15.40;;;5.50;;
45863;SDS011;31579;52.354;16.974;2023-02-27T08:01:06;16.10;;;6.30;;
45863;SDS011;31579;52.354;16.974;2023-02-27T08:06:06;16.10;;;6.30;;
45863;SDS011;31579;52.354;16.974;2023-02-27T08:11:06;15.90;;;6.30;;
45863;SDS011;31579;52.354;16.974;2023-02-27T08:16:06;15.90;;;6.30;;
45863;SDS011;31579;52.354;16.974;2023-02-27T08:21:11;12.70;;;4.70;;
45863;SDS011;31579;52.354;16.974;2023-02-27T08:26:11;12.70;;;4.70;;
45863;SDS011;31579;52.354;16.974;2023-02-27T08:31:15;12.40;;;5.20;;
45863;SDS011;31579;52.354;16.974;2023-02-27T08:36:11;12.40;;;5.20;;
45863;SDS011;31579;52.354;16.974;2023-02-27T08:41:11;12.40;;;5.00;;
45863;SDS011;31579;52.354;16.974;2023-02-27T08:46:04;12.40;;;5.00;;
45863;SDS011;31579;52.354;16.974;2023-02-27T08:51:02;13.70;;;5.70;;
45863;SDS011;31579;52.354;16.974;2023-02-27T08:56:02;13.70;;;5.70;;
45863;SDS011;31579;52.354;16.974;2023-02-27T09:01:06;11.60;;;5.30;;
45863;SDS011;31579;52.354;16.974;2023-02-27T09:06:02;11.60;;;5.30;;
45863;SDS011;31579;52.354;16.974;2023-02-27T09:11:03;7.90;;;3.60;;
45863;SDS011;31579;52.354;16.974;2023-02-27T09:16:02;7.90;;;3.60;;
45863;SDS011;31579;52.354;16.974;2023-02-27T09:21:02;10.00;;;3.00;;
45863;SDS011;31579;52.354;16.974;2023-02-27T09:26:02;10.00;;;3.00;;
45863;SDS011;31579;52.354;16.974;2023-02-27T09:31:03;8.20;;;2.70;;
45863;SDS011;31579;52.354;16.974;2023-02-27T09:36:03;8.20;;;2.70;;
45863;SDS011;31579;52.354;16.974;2023-02-27T09:41:03;6.70;;;2.70;;
45863;SDS011;31579;52.354;16.974;2023-02-27T09:46:02;6.70;;;2.70;;
45863;SDS011;31579;52.354;16.974;2023-02-27T09:51:07;5.80;;;2.30;;
45863;SDS011;31579;52.354;16.974;2023-02-27T10:19:31;6.40;;;1.70;;
45863;SDS011;31579;52.354;16.974;2023-02-27T10:27:31;6.40;;;1.70;;
45863;SDS011;31579;52.354;16.974;2023-02-27T10:32:31;5.20;;;1.80;;
45863;SDS011;31579;52.354;16.974;2023-02-27T10:37:31;5.20;;;1.80;;
45863;SDS011;31579;52.354;16.974;2023-02-27T10:42:33;6.90;;;2.40;;
45863;SDS011;31579;52.354;16.974;2023-02-27T10:47:31;6.90;;;2.40;;
45863;SDS011;31579;52.354;16.974;2023-02-27T10:52:31;5.30;;;2.00;;
45863;SDS011;31579;52.354;16.974;2023-02-27T10:57:35;5.30;;;2.00;;
45863;SDS011;31579;52.354;16.974;2023-02-27T11:07:33;6.10;;;1.80;;
45863;SDS011;31579;52.354;16.974;2023-02-27T11:12:32;3.60;;;1.00;;
45863;SDS011;31579;52.354;16.974;2023-02-27T11:17:32;3.60;;;1.00;;
45863;SDS011;31579;52.354;16.974;2023-02-27T11:22:31;5.00;;;1.20;;
45863;SDS011;31579;52.354;16.974;2023-02-27T11:38:16;6.00;;;1.70;;
45863;SDS011;31579;52.354;16.974;2023-02-27T11:43:19;6.00;;;1.70;;
45863;SDS011;31579;52.354;16.974;2023-02-27T11:48:23;4.90;;;1.60;;
45863;SDS011;31579;52.354;16.974;2023-02-27T11:58:17;5.40;;;1.70;;
45863;SDS011;31579;52.354;16.974;2023-02-27T12:40:05;4.20;;;1.10;;
45863;SDS011;31579;52.354;16.974;2023-02-27T12:50:04;4.20;;;1.00;;
45863;SDS011;31579;52.354;16.974;2023-02-27T13:10:09;5.00;;;1.20;;
45863;SDS011;31579;52.354;16.974;2023-02-27T13:15:05;5.00;;;1.20;;
45863;SDS011;31579;52.354;16.974;2023-02-27T13:25:04;4.00;;;0.80;;
45863;SDS011;31579;52.354;16.974;2023-02-27T13:31:08;3.70;;;1.30;;
45863;SDS011;31579;52.354;16.974;2023-02-27T14:06:11;5.80;;;1.30;;
45863;SDS011;31579;52.354;16.974;2023-02-27T14:16:15;3.00;;;1.10;;
45863;SDS011;31579;52.354;16.974;2023-02-27T14:21:11;5.00;;;1.40;;
45863;SDS011;31579;52.354;16.974;2023-02-27T14:25:13;5.00;;;1.40;;
45863;SDS011;31579;52.354;16.974;2023-02-27T14:30:04;2.90;;;0.80;;
45863;SDS011;31579;52.354;16.974;2023-02-27T14:35:04;2.90;;;0.80;;
45863;SDS011;31579;52.354;16.974;2023-02-27T14:48:04;3.60;;;1.00;;
45863;SDS011;31579;52.354;16.974;2023-02-27T14:57:04;3.60;;;1.00;;
45863;SDS011;31579;52.354;16.974;2023-02-27T15:02:07;5.80;;;1.60;;
45863;SDS011;31579;52.354;16.974;2023-02-27T15:07:03;5.80;;;1.60;;
45863;SDS011;31579;52.354;16.974;2023-02-27T15:12:03;5.70;;;1.50;;
45863;SDS011;31579;52.354;16.974;2023-02-27T15:17:13;5.70;;;1.50;;
45863;SDS011;31579;52.354;16.974;2023-02-27T15:22:13;3.80;;;1.10;;
45863;SDS011;31579;52.354;16.974;2023-02-27T15:27:04;3.80;;;1.10;;
45863;SDS011;31579;52.354;16.974;2023-02-27T15:32:04;6.60;;;1.40;;
45863;SDS011;31579;52.354;16.974;2023-02-27T15:37:04;6.60;;;1.40;;
45863;SDS011;31579;52.354;16.974;2023-02-27T15:42:03;5.30;;;1.40;;
45863;SDS011;31579;52.354;16.974;2023-02-27T15:47:03;5.30;;;1.40;;
45863;SDS011;31579;52.354;16.974;2023-02-27T15:52:09;5.80;;;2.10;;
45863;SDS011;31579;52.354;16.974;2023-02-27T15:57:03;5.80;;;2.10;;
45863;SDS011;31579;52.354;16.974;2023-02-27T16:02:04;9.20;;;3.20;;
45863;SDS011;31579;52.354;16.974;2023-02-27T16:07:04;9.20;;;3.20;;
45863;SDS011;31579;52.354;16.974;2023-02-27T16:17:19;9.30;;;3.60;;
45863;SDS011;31579;52.354;16.974;2023-02-27T16:22:14;10.10;;;3.90;;
45863;SDS011;31579;52.354;16.974;2023-02-27T16:27:03;10.10;;;3.90;;
45863;SDS011;31579;52.354;16.974;2023-02-27T16:32:03;12.90;;;4.80;;
45863;SDS011;31579;52.354;16.974;2023-02-27T16:37:04;12.90;;;4.80;;
45863;SDS011;31579;52.354;16.974;2023-02-27T16:42:08;16.10;;;6.80;;
45863;SDS011;31579;52.354;16.974;2023-02-27T16:47:03;16.10;;;6.80;;
45863;SDS011;31579;52.354;16.974;2023-02-27T16:52:03;15.60;;;7.10;;
45863;SDS011;31579;52.354;16.974;2023-02-27T16:57:03;15.60;;;7.10;;
45863;SDS011;31579;52.354;16.974;2023-02-27T17:06:13;17.50;;;7.30;;
45863;SDS011;31579;52.354;16.974;2023-02-27T17:11:13;21.60;;;9.10;;
45863;SDS011;31579;52.354;16.974;2023-02-27T17:16:17;21.60;;;9.10;;
45863;SDS011;31579;52.354;16.974;2023-02-27T17:21:13;23.70;;;10.30;;
45863;SDS011;31579;52.354;16.974;2023-02-27T17:26:13;23.70;;;10.30;;
45863;SDS011;31579;52.354;16.974;2023-02-27T17:31:15;31.00;;;12.40;;
45863;SDS011;31579;52.354;16.974;2023-02-27T17:36:14;31.00;;;12.40;;
45863;SDS011;31579;52.354;16.974;2023-02-27T17:41:14;34.70;;;12.40;;
45863;SDS011;31579;52.354;16.974;2023-02-27T17:46:14;34.70;;;12.40;;
45863;SDS011;31579;52.354;16.974;2023-02-27T17:51:14;31.20;;;12.50;;
45863;SDS011;31579;52.354;16.974;2023-02-27T17:56:14;31.20;;;12.50;;
45863;SDS011;31579;52.354;16.974;2023-02-27T18:01:16;38.60;;;14.50;;
45863;SDS011;31579;52.354;16.974;2023-02-27T18:06:14;38.60;;;14.50;;
45863;SDS011;31579;52.354;16.974;2023-02-27T18:11:15;123.30;;;42.30;;
45863;SDS011;31579;52.354;16.974;2023-02-27T18:16:15;123.30;;;42.30;;
45863;SDS011;31579;52.354;16.974;2023-02-27T18:21:16;47.80;;;19.90;;
45863;SDS011;31579;52.354;16.974;2023-02-27T18:26:15;47.80;;;19.90;;
45863;SDS011;31579;52.354;16.974;2023-02-27T18:36:14;53.10;;;21.80;;
45863;SDS011;31579;52.354;16.974;2023-02-27T18:41:14;48.70;;;19.60;;
45863;SDS011;31579;52.354;16.974;2023-02-27T18:46:14;48.70;;;19.60;;
45863;SDS011;31579;52.354;16.974;2023-02-27T18:47:04;48.70;;;19.60;;
45863;SDS011;31579;52.354;16.974;2023-02-27T18:52:03;36.90;;;15.80;;
45863;SDS011;31579;52.354;16.974;2023-02-27T18:57:03;34.60;;;14.70;;
45863;SDS011;31579;52.354;16.974;2023-02-27T19:02:04;34.60;;;14.70;;
45863;SDS011;31579;52.354;16.974;2023-02-27T19:07:13;42.40;;;17.50;;
45863;SDS011;31579;52.354;16.974;2023-02-27T19:12:11;42.40;;;17.50;;
45863;SDS011;31579;52.354;16.974;2023-02-27T19:17:11;30.20;;;13.10;;
45863;SDS011;31579;52.354;16.974;2023-02-27T19:22:13;30.20;;;13.10;;
45863;SDS011;31579;52.354;16.974;2023-02-27T19:27:11;32.30;;;13.20;;
45863;SDS011;31579;52.354;16.974;2023-02-27T19:32:11;32.30;;;13.20;;
45863;SDS011;31579;52.354;16.974;2023-02-27T19:37:11;17.60;;;8.60;;
45863;SDS011;31579;52.354;16.974;2023-02-27T19:42:11;17.60;;;8.60;;
45863;SDS011;31579;52.354;16.974;2023-02-27T19:47:11;19.50;;;8.20;;
45863;SDS011;31579;52.354;16.974;2023-02-27T19:52:11;19.50;;;8.20;;
45863;SDS011;31579;52.354;16.974;2023-02-27T19:57:11;22.40;;;8.90;;
45863;SDS011;31579;52.354;16.974;2023-02-27T20:02:11;22.40;;;8.90;;
45863;SDS011;31579;52.354;16.974;2023-02-27T20:07:11;20.60;;;7.60;;
45863;SDS011;31579;52.354;16.974;2023-02-27T20:12:11;20.60;;;7.60;;
45863;SDS011;31579;52.354;16.974;2023-02-27T20:17:12;23.30;;;9.10;;
45863;SDS011;31579;52.354;16.974;2023-02-27T20:22:11;23.30;;;9.10;;
45863;SDS011;31579;52.354;16.974;2023-02-27T20:27:11;19.10;;;8.10;;
45863;SDS011;31579;52.354;16.974;2023-02-27T20:35:15;19.10;;;8.10;;
45863;SDS011;31579;52.354;16.974;2023-02-27T20:40:15;19.50;;;8.60;;
45863;SDS011;31579;52.354;16.974;2023-02-27T20:45:15;19.50;;;8.60;;
45863;SDS011;31579;52.354;16.974;2023-02-27T20:50:16;45.50;;;16.90;;
45863;SDS011;31579;52.354;16.974;2023-02-27T20:55:15;45.50;;;16.90;;
45863;SDS011;31579;52.354;16.974;2023-02-27T21:00:16;26.40;;;10.70;;
45863;SDS011;31579;52.354;16.974;2023-02-27T21:05:20;26.40;;;10.70;;
45863;SDS011;31579;52.354;16.974;2023-02-27T21:10:16;19.00;;;7.90;;
45863;SDS011;31579;52.354;16.974;2023-02-27T21:15:15;19.00;;;7.90;;
45863;SDS011;31579;52.354;16.974;2023-02-27T21:20:15;23.50;;;9.30;;
45863;SDS011;31579;52.354;16.974;2023-02-27T21:25:15;23.50;;;9.30;;
45863;SDS011;31579;52.354;16.974;2023-02-27T21:30:17;38.00;;;16.50;;
45863;SDS011;31579;52.354;16.974;2023-02-27T21:35:16;38.00;;;16.50;;
45863;SDS011;31579;52.354;16.974;2023-02-27T21:40:16;35.80;;;15.70;;
45863;SDS011;31579;52.354;16.974;2023-02-27T21:45:15;35.80;;;15.70;;
45863;SDS011;31579;52.354;16.974;2023-02-27T21:50:16;42.30;;;14.90;;
45863;SDS011;31579;52.354;16.974;2023-02-27T21:55:15;42.30;;;14.90;;
45863;SDS011;31579;52.354;16.974;2023-02-27T22:00:16;39.30;;;15.10;;
45863;SDS011;31579;52.354;16.974;2023-02-27T22:05:16;39.30;;;15.10;;
45863;SDS011;31579;52.354;16.974;2023-02-27T22:10:16;38.80;;;16.00;;
45863;SDS011;31579;52.354;16.974;2023-02-27T22:15:16;38.80;;;16.00;;
45863;SDS011;31579;52.354;16.974;2023-02-27T22:20:16;37.50;;;16.80;;
45863;SDS011;31579;52.354;16.974;2023-02-27T22:25:16;37.50;;;16.80;;
45863;SDS011;31579;52.354;16.974;2023-02-27T22:30:16;41.30;;;17.20;;
45863;SDS011;31579;52.354;16.974;2023-02-27T22:35:16;41.30;;;17.20;;
45863;SDS011;31579;52.354;16.974;2023-02-27T22:40:16;44.60;;;18.30;;
45863;SDS011;31579;52.354;16.974;2023-02-27T22:45:15;44.60;;;18.30;;
45863;SDS011;31579;52.354;16.974;2023-02-27T22:50:16;42.40;;;17.70;;
45863;SDS011;31579;52.354;16.974;2023-02-27T22:55:15;42.40;;;17.70;;
45863;SDS011;31579;52.354;16.974;2023-02-27T23:00:16;38.90;;;18.20;;
45863;SDS011;31579;52.354;16.974;2023-02-27T23:02:16;38.90;;;18.20;;
45863;SDS011;31579;52.354;16.974;2023-02-27T23:07:14;40.70;;;18.40;;
45863;SDS011;31579;52.354;16.974;2023-02-27T23:12:14;40.70;;;18.40;;
45863;SDS011;31579;52.354;16.974;2023-02-27T23:17:14;48.30;;;20.70;;
45863;SDS011;31579;52.354;16.974;2023-02-27T23:22:14;48.30;;;20.70;;
45863;SDS011;31579;52.354;16.974;2023-02-27T23:27:14;48.50;;;21.00;;
45863;SDS011;31579;52.354;16.974;2023-02-27T23:32:14;48.50;;;21.00;;
45863;SDS011;31579;52.354;16.974;2023-02-27T23:37:14;41.20;;;18.70;;
45863;SDS011;31579;52.354;16.974;2023-02-27T23:42:14;41.20;;;18.70;;
45863;SDS011;31579;52.354;16.974;2023-02-27T23:47:14;48.00;;;20.10;;
45863;SDS011;31579;52.354;16.974;2023-02-27T23:52:14;48.00;;;20.10;;
45863;SDS011;31579;52.354;16.974;2023-02-27T23:57:14;67.70;;;27.60;;
